Landing, NJ (07850)

3:46 PM EDT on July 06, 2015 (GMT -0400)
APRSWXNET | | Change Station
CLOSE
Current Station
Personal Weather Station
Location: Ledgewood, NJ
Elevation: 919 ft
Nearby Weather Stations

Elev 919 ft 40.89 °N, 74.67 °W | Updated 17 minutes ago

Overcast
Overcast
80 °F
Feels Like 83 °F
N
1
Wind Variable Wind from SSW
Gusts 5.0 mph

Today
High -- | Low -- °F
--% Chance of Precip.
Yesterday
High -- | Low -- °F
Precip. -- in
5:33 AM 8:33 PM
Waning Gibbous, 73% visible
Pressure 30.13 in
Visibility 10.0 miles
Clouds Mostly Cloudy 4000 ft
Mostly Cloudy 5000 ft
Heat Index 83 °F
Dew Point 69 °F
Humidity 69%
Rainfall in
Snow Depth Not available.
UV 5 out of 12
Pollen 3.90 out of 12
Air Quality Not available.
Flu Activity Not available.
METAR KMMU 061845Z 15005KT 10SM BKN040 BKN050 29/21 A3013

More Conditions Fewer Conditions

Pressure 30.13 in
Visibility 10.0 miles
Clouds Mostly Cloudy 4000 ft
Mostly Cloudy 5000 ft
Heat Index 83 °F
Dew Point 69 °F
Humidity 69%
Rainfall in
Snow Depth Not available.
UV 5 out of 12
Pollen 3.90 out of 12
Air Quality Not available.
Flu Activity Not available.
METAR KMMU 061845Z 15005KT 10SM BKN040 BKN050 29/21 A3013

More Conditions Fewer Conditions

Nowcast | as of 3:46 PM EDT on July 6, 2015

Isolated to scattered showers will continue to develop and spread across the area through the late afternoon hours. A few areas may see a brief moderate to heavy downpour. A few rumbles of thunder area also possible.

×

10-Day Weather Forecast

×

Almanac

Astronomy

Jul. 06, 2015 Rise Set
Actual Time
Civil Twilight
Nautical Twilight
Astronomical Twilight
Moon
Length of Visible Light
Length of Day
Tomorrow will be .
, % of the Moon is Illuminated

Today's Extremes

State Highs State Lows

Community

WunderPhotos

Upload Photos

1,835,625 photos uploaded!

WunderBlogs® & News

Nearby

Air Quality

  Air Quality AQ Index Pollutant
Not available.

Snow Depth

Station Depth Elevation

Earthquake Activity

City Distance Mag. Time & Date
Minimum magnitude displayed is 2.5.

Coastal Water Temperatures

Place Temperature

Stations

Nearby Weather Stations

Station Location Temp. Windchill Dew Point Humidity Wind Precip. Elev Updated Type